Time;durP1;ratioP1;P1;durP2;ratioP2;P2;SDS_P1;SDS_P2;PMS_P1;PMS_P2;Temp;Humidity;BMP_temperature;BMP_pressure;BME280_temperature;BME280_humidity;BME280_pressure;Samples;Min_cycle;Max_cycle;Signal;HPM_P1;HPM_P2
2021/07/25 00:00:57;;;;;;;17.83;11.48;;;26.00;59.20;;;;;;6177002;28;83071;-66
2021/07/25 00:03:58;;;;;;;19.25;11.32;;;26.00;59.20;;;;;;6175661;28;83969;-66
2021/07/25 00:06:58;;;;;;;16.25;11.38;;;26.00;58.70;;;;;;6178527;28;83348;-66
2021/07/25 00:09:59;;;;;;;17.55;11.88;;;25.90;58.60;;;;;;6170740;28;83040;-66
2021/07/25 00:12:59;;;;;;;18.95;12.77;;;25.90;58.60;;;;;;6174714;28;83284;-66
2021/07/25 00:16:00;;;;;;;19.25;11.65;;;25.90;58.70;;;;;;6168428;28;83495;-66
2021/07/25 00:19:00;;;;;;;17.67;10.43;;;26.00;58.50;;;;;;6178164;28;83761;-66
2021/07/25 00:22:01;;;;;;;17.33;10.80;;;25.90;58.50;;;;;;6176569;28;83413;-66
2021/07/25 00:25:08;;;;;;;20.58;11.23;;;26.00;58.50;;;;;;6177725;28;83094;-66
2021/07/25 00:28:14;;;;;;;18.83;12.10;;;26.00;58.60;;;;;;6175639;28;83869;-66
2021/07/25 00:31:15;;;;;;;19.15;12.25;;;25.90;58.50;;;;;;6175639;28;86044;-67
2021/07/25 00:34:15;;;;;;;15.93;11.07;;;25.90;58.60;;;;;;6179052;28;82976;-66
2021/07/25 00:37:16;;;;;;;15.20;10.80;;;25.90;58.30;;;;;;6177104;28;82881;-65
2021/07/25 00:40:16;;;;;;;14.85;10.60;;;25.90;58.60;;;;;;6176724;28;84000;-66
2021/07/25 00:43:17;;;;;;;17.00;10.98;;;25.90;58.30;;;;;;6176954;28;83339;-66
2021/07/25 00:46:17;;;;;;;16.42;11.18;;;25.90;58.20;;;;;;6171423;28;83119;-66
2021/07/25 00:49:18;;;;;;;19.95;11.60;;;25.90;58.30;;;;;;6177727;28;83686;-65
2021/07/25 00:52:18;;;;;;;17.00;11.63;;;25.80;58.30;;;;;;6175742;28;83226;-65
2021/07/25 00:55:19;;;;;;;15.68;11.52;;;25.80;58.20;;;;;;6175444;28;85210;-66
2021/07/25 00:58:19;;;;;;;18.25;11.32;;;25.80;58.40;;;;;;6173889;28;83578;-66
2021/07/25 01:01:20;;;;;;;16.67;11.68;;;25.80;59.00;;;;;;6169437;28;84077;-66
2021/07/25 01:04:21;;;;;;;16.98;12.52;;;25.70;58.10;;;;;;6176339;28;82998;-68
2021/07/25 01:07:21;;;;;;;14.65;10.93;;;25.70;58.10;;;;;;6174696;28;83166;-68
2021/07/25 01:10:22;;;;;;;15.75;11.43;;;25.80;58.10;;;;;;6172204;28;84119;-68
2021/07/25 01:13:23;;;;;;;18.15;11.55;;;25.80;58.20;;;;;;6175954;28;83932;-68
2021/07/25 01:16:24;;;;;;;15.63;10.57;;;25.80;58.20;;;;;;6177495;28;83264;-68
2021/07/25 01:19:24;;;;;;;17.70;10.50;;;25.80;58.50;;;;;;6173342;28;83685;-68
2021/07/25 01:22:25;;;;;;;16.33;10.40;;;25.90;58.10;;;;;;6176174;28;83654;-68
2021/07/25 01:25:25;;;;;;;12.40;9.93;;;25.90;58.10;;;;;;6178567;28;83208;-68
2021/07/25 01:28:26;;;;;;;17.98;10.70;;;25.80;58.10;;;;;;6180950;28;83061;-68
2021/07/25 01:31:26;;;;;;;19.02;11.10;;;25.80;58.00;;;;;;6181860;28;83040;-68
2021/07/25 01:34:27;;;;;;;19.38;11.10;;;25.80;58.10;;;;;;6181077;28;82964;-67
2021/07/25 01:37:27;;;;;;;16.27;11.38;;;25.70;57.90;;;;;;6181794;28;83477;-68
2021/07/25 01:40:28;;;;;;;16.10;9.82;;;25.80;58.00;;;;;;6175014;28;84550;-68
2021/07/25 01:43:28;;;;;;;14.18;10.13;;;25.80;57.90;;;;;;6184717;28;82807;-68
2021/07/25 01:46:29;;;;;;;19.45;10.13;;;25.70;57.60;;;;;;6170139;28;83172;-68
2021/07/25 01:49:29;;;;;;;16.60;10.00;;;25.70;57.60;;;;;;6178419;28;84374;-67
2021/07/25 01:52:30;;;;;;;15.70;11.18;;;25.80;57.70;;;;;;6179176;28;82989;-67
2021/07/25 01:55:30;;;;;;;17.42;10.73;;;25.70;57.70;;;;;;6180012;28;83614;-68
2021/07/25 01:58:31;;;;;;;13.75;9.98;;;25.70;57.70;;;;;;6178917;28;83086;-68
2021/07/25 02:01:31;;;;;;;18.38;10.40;;;25.70;57.80;;;;;;6175796;28;83456;-68
2021/07/25 02:04:32;;;;;;;19.10;11.20;;;25.70;57.80;;;;;;6181398;28;83003;-68
2021/07/25 02:07:32;;;;;;;13.32;10.90;;;25.60;57.70;;;;;;6168054;28;83145;-68
2021/07/25 02:10:33;;;;;;;17.17;10.00;;;25.70;57.70;;;;;;6179134;28;83671;-68
2021/07/25 02:13:33;;;;;;;12.90;10.30;;;25.60;57.60;;;;;;6182535;28;83405;-68
2021/07/25 02:16:34;;;;;;;16.10;10.07;;;25.70;57.80;;;;;;6178557;28;83264;-67
2021/07/25 02:19:34;;;;;;;14.45;10.25;;;25.70;57.70;;;;;;6175651;28;83956;-67
2021/07/25 02:22:35;;;;;;;13.25;9.90;;;25.70;57.70;;;;;;6179355;28;84294;-68
2021/07/25 02:25:37;;;;;;;12.52;9.15;;;25.70;57.70;;;;;;6179231;28;81750;-68
2021/07/25 02:28:38;;;;;;;14.52;10.32;;;25.70;57.60;;;;;;6184649;28;80212;-68
2021/07/25 02:31:38;;;;;;;12.63;8.95;;;25.80;57.70;;;;;;6177656;28;83893;-69
2021/07/25 02:34:40;;;;;;;13.02;9.82;;;25.70;57.50;;;;;;6183343;28;82911;-67
2021/07/25 02:37:41;;;;;;;13.00;10.25;;;25.70;57.60;;;;;;6182101;28;80498;-67
2021/07/25 02:40:41;;;;;;;13.68;10.18;;;25.70;57.70;;;;;;6167776;28;83377;-66
2021/07/25 02:43:42;;;;;;;13.40;10.00;;;25.70;57.70;;;;;;6179371;28;82985;-66
2021/07/25 02:46:42;;;;;;;13.48;9.70;;;25.70;57.60;;;;;;6180253;28;83811;-66
2021/07/25 02:49:43;;;;;;;14.43;9.55;;;25.70;57.60;;;;;;6182710;28;84229;-66
2021/07/25 02:52:43;;;;;;;14.80;10.10;;;25.70;57.60;;;;;;6181186;28;80847;-66
2021/07/25 02:55:44;;;;;;;16.55;10.52;;;25.70;57.90;;;;;;6168013;28;82897;-66
2021/07/25 02:58:44;;;;;;;15.48;9.95;;;25.70;57.70;;;;;;6178226;28;84113;-66
2021/07/25 03:01:45;;;;;;;16.48;10.00;;;25.80;58.10;;;;;;6182459;28;82961;-66
2021/07/25 03:04:47;;;;;;;15.45;9.93;;;25.80;58.00;;;;;;6178320;28;84178;-66
2021/07/25 03:07:48;;;;;;;20.23;11.07;;;25.80;57.90;;;;;;6181097;28;82974;-66
2021/07/25 03:10:48;;;;;;;16.75;10.93;;;25.80;58.20;;;;;;6179373;28;83765;-66
2021/07/25 03:13:49;;;;;;;18.23;11.98;;;25.70;57.70;;;;;;6178256;28;83510;-65
2021/07/25 03:16:49;;;;;;;16.05;11.65;;;25.70;57.80;;;;;;6176001;28;83089;-66
2021/07/25 03:19:50;;;;;;;16.63;10.80;;;25.80;58.20;;;;;;6177642;28;83454;-66
2021/07/25 03:22:50;;;;;;;17.10;12.05;;;25.70;57.70;;;;;;6180154;28;83329;-66
2021/07/25 03:25:50;;;;;;;16.60;12.30;;;25.70;57.60;;;;;;6171701;28;83927;-66
2021/07/25 03:28:51;;;;;;;20.00;12.45;;;25.70;57.90;;;;;;6176684;28;83089;-66
2021/07/25 03:31:51;;;;;;;18.75;12.35;;;25.70;57.70;;;;;;6179190;28;83075;-66
2021/07/25 03:34:52;;;;;;;17.20;12.02;;;25.70;57.90;;;;;;6165318;28;83358;-67
2021/07/25 03:37:53;;;;;;;18.10;11.60;;;25.70;57.80;;;;;;6170032;28;83740;-66
2021/07/25 03:41:01;;;;;;;21.05;12.20;;;25.70;58.00;;;;;;6172616;28;83295;-67
2021/07/25 03:44:01;;;;;;;15.13;11.35;;;25.70;58.00;;;;;;6178980;28;83081;-66
2021/07/25 03:47:02;;;;;;;21.23;13.48;;;25.70;57.90;;;;;;6178735;28;83926;-66
2021/07/25 03:50:02;;;;;;;23.60;12.27;;;25.70;57.80;;;;;;6178618;28;83852;-66
2021/07/25 03:53:04;;;;;;;17.67;11.60;;;25.70;57.90;;;;;;6177226;28;82956;-66
2021/07/25 03:56:05;;;;;;;18.50;11.80;;;25.70;58.90;;;;;;6173991;28;83468;-66
2021/07/25 03:59:05;;;;;;;18.38;11.95;;;25.70;58.10;;;;;;6178206;28;87626;-67
2021/07/25 04:02:06;;;;;;;14.90;11.20;;;25.70;58.20;;;;;;6174595;28;83955;-66
2021/07/25 04:05:06;;;;;;;16.30;11.20;;;25.70;58.10;;;;;;6170275;28;83198;-67
2021/07/25 04:08:07;;;;;;;17.98;12.40;;;25.70;58.20;;;;;;6177629;28;82859;-67
2021/07/25 04:11:07;;;;;;;14.02;10.65;;;25.70;58.40;;;;;;6179178;28;83170;-67
2021/07/25 04:14:08;;;;;;;24.00;11.70;;;25.70;58.40;;;;;;6177024;28;83080;-67
2021/07/25 04:17:08;;;;;;;17.75;11.70;;;25.70;58.80;;;;;;6178953;28;83862;-66
2021/07/25 04:20:09;;;;;;;19.48;11.77;;;25.70;58.50;;;;;;6186017;28;83123;-67
2021/07/25 04:23:09;;;;;;;17.02;10.93;;;25.70;59.00;;;;;;6174052;28;83342;-67
2021/07/25 04:26:10;;;;;;;17.83;11.93;;;25.70;58.70;;;;;;6177299;28;86996;-66
2021/07/25 04:29:10;;;;;;;14.75;10.98;;;25.70;58.50;;;;;;6178295;28;82968;-66
2021/07/25 04:32:11;;;;;;;15.70;11.15;;;25.70;58.40;;;;;;6176150;28;83496;-67
2021/07/25 04:35:11;;;;;;;14.05;10.70;;;25.70;58.40;;;;;;6174086;28;83199;-67
2021/07/25 04:38:12;;;;;;;19.30;11.88;;;25.70;58.30;;;;;;6178830;28;83227;-66
2021/07/25 04:41:12;;;;;;;14.85;11.18;;;25.70;58.70;;;;;;6177526;28;83237;-67
2021/07/25 04:44:13;;;;;;;17.92;11.57;;;25.70;58.20;;;;;;6178913;28;82909;-67
2021/07/25 04:47:13;;;;;;;16.75;11.02;;;25.70;58.20;;;;;;6177375;28;83349;-68
2021/07/25 04:50:14;;;;;;;16.30;11.18;;;25.70;58.70;;;;;;6174269;28;83794;-66
2021/07/25 04:53:14;;;;;;;18.85;11.82;;;25.70;58.40;;;;;;6178149;28;83340;-66
2021/07/25 04:56:15;;;;;;;18.35;10.70;;;25.70;59.00;;;;;;6178981;28;84384;-66
2021/07/25 04:59:15;;;;;;;15.43;10.90;;;25.70;58.70;;;;;;6182642;28;83497;-66
2021/07/25 05:02:17;;;;;;;18.38;11.25;;;25.80;58.90;;;;;;6178334;28;85347;-69
2021/07/25 05:05:17;;;;;;;15.15;10.98;;;25.80;58.90;;;;;;6171447;28;83922;-69
2021/07/25 05:08:18;;;;;;;17.40;11.30;;;25.80;58.90;;;;;;6166823;28;85756;-69
2021/07/25 05:11:18;;;;;;;15.05;11.10;;;25.80;58.80;;;;;;6176104;28;82930;-66
2021/07/25 05:14:19;;;;;;;17.27;11.23;;;25.80;58.80;;;;;;6173017;28;85772;-67
2021/07/25 05:17:19;;;;;;;18.23;11.98;;;25.80;59.10;;;;;;6177301;28;84122;-68
2021/07/25 05:20:20;;;;;;;16.33;11.77;;;25.80;59.40;;;;;;6176745;28;82964;-68
2021/07/25 05:23:20;;;;;;;19.15;13.02;;;25.80;59.00;;;;;;6179952;28;83092;-68
2021/07/25 05:26:21;;;;;;;18.67;11.73;;;25.90;59.20;;;;;;6174860;28;83395;-68
2021/07/25 05:29:21;;;;;;;21.05;10.75;;;25.90;59.20;;;;;;6169364;28;82913;-68
2021/07/25 05:32:22;;;;;;;18.42;11.05;;;25.90;58.90;;;;;;6179234;28;82990;-67
2021/07/25 05:35:22;;;;;;;17.25;11.73;;;25.90;58.70;;;;;;6182864;28;83557;-68
2021/07/25 05:38:23;;;;;;;21.75;12.15;;;25.90;59.00;;;;;;6165047;28;83532;-65
2021/07/25 05:41:23;;;;;;;16.98;12.05;;;26.00;59.00;;;;;;6181511;28;82901;-67
2021/07/25 05:44:24;;;;;;;16.65;12.45;;;26.00;59.80;;;;;;6180853;28;83348;-67
2021/07/25 05:47:24;;;;;;;19.67;11.80;;;26.00;59.40;;;;;;6178734;28;83434;-67
2021/07/25 05:50:25;;;;;;;16.23;11.68;;;26.00;59.50;;;;;;6182468;28;84165;-68
2021/07/25 05:53:25;;;;;;;18.10;12.10;;;26.00;59.60;;;;;;6172811;28;83477;-68
2021/07/25 05:56:26;;;;;;;18.13;11.45;;;26.00;59.70;;;;;;6177438;28;83556;-67
2021/07/25 05:59:26;;;;;;;16.92;11.43;;;26.00;59.60;;;;;;6178435;28;83298;-68
2021/07/25 06:02:28;;;;;;;17.42;11.07;;;26.10;59.60;;;;;;6178472;28;83950;-67
2021/07/25 06:05:28;;;;;;;19.75;12.25;;;26.10;59.90;;;;;;6179650;28;83225;-66
2021/07/25 06:08:29;;;;;;;20.13;13.25;;;26.10;60.00;;;;;;6176738;28;83264;-67
2021/07/25 06:11:29;;;;;;;15.63;11.43;;;26.10;59.60;;;;;;6175449;28;83258;-67
2021/07/25 06:14:30;;;;;;;22.75;12.57;;;26.10;59.70;;;;;;6181896;28;85429;-66
2021/07/25 06:17:30;;;;;;;15.65;11.45;;;26.10;59.40;;;;;;6178697;28;83177;-66
2021/07/25 06:20:31;;;;;;;16.27;11.45;;;26.10;59.00;;;;;;6164801;28;85870;-66
2021/07/25 06:23:32;;;;;;;20.70;11.25;;;26.10;58.90;;;;;;6177951;28;83487;-68
2021/07/25 06:26:32;;;;;;;21.10;11.38;;;26.20;58.90;;;;;;6177853;28;83688;-65
2021/07/25 06:29:33;;;;;;;18.73;11.40;;;26.20;58.70;;;;;;6177194;28;83325;-66
2021/07/25 06:32:34;;;;;;;15.15;10.18;;;26.20;58.50;;;;;;6161263;28;83223;-68
2021/07/25 06:35:34;;;;;;;16.55;11.45;;;26.20;58.30;;;;;;6174490;28;86395;-67
2021/07/25 06:38:35;;;;;;;12.52;9.95;;;26.20;58.00;;;;;;6167402;28;83163;-67
2021/07/25 06:41:35;;;;;;;14.45;9.93;;;26.20;58.20;;;;;;6175741;28;81562;-68
2021/07/25 06:44:36;;;;;;;29.35;10.80;;;26.20;58.30;;;;;;6170459;28;80367;-67
2021/07/25 06:47:36;;;;;;;14.10;10.40;;;26.20;58.40;;;;;;6163994;28;83378;-69
2021/07/25 06:50:37;;;;;;;12.13;9.77;;;26.20;58.40;;;;;;6165584;28;82964;-68
2021/07/25 06:53:40;;;;;;;17.17;10.68;;;26.10;58.60;;;;;;6180114;28;82727;-68
2021/07/25 06:56:41;;;;;;;16.52;10.35;;;26.20;58.90;;;;;;6178182;28;82887;-67
2021/07/25 06:59:41;;;;;;;14.45;10.32;;;26.20;59.20;;;;;;6169362;28;84187;-68
2021/07/25 07:02:42;;;;;;;19.02;11.48;;;26.20;59.50;;;;;;6173897;28;82936;-67
2021/07/25 07:05:42;;;;;;;18.10;10.93;;;26.20;59.60;;;;;;6175088;28;85323;-68
2021/07/25 07:08:43;;;;;;;13.10;10.15;;;26.20;59.90;;;;;;6170435;28;82954;-71
2021/07/25 07:11:43;;;;;;;17.92;10.25;;;26.30;60.20;;;;;;6163416;28;83699;-68
2021/07/25 07:14:44;;;;;;;14.95;9.77;;;26.20;60.50;;;;;;6170481;28;83024;-73
2021/07/25 07:17:44;;;;;;;16.20;10.38;;;26.20;60.50;;;;;;6167710;28;83377;-70
2021/07/25 07:20:45;;;;;;;18.88;10.88;;;26.20;60.90;;;;;;6166225;28;82711;-67
2021/07/25 07:23:46;;;;;;;13.77;9.75;;;26.20;61.30;;;;;;6179100;28;83334;-67
2021/07/25 07:26:47;;;;;;;20.70;9.30;;;26.20;61.70;;;;;;6180615;28;84198;-67
2021/07/25 07:29:47;;;;;;;15.40;11.98;;;26.20;61.90;;;;;;6179880;28;80858;-69
2021/07/25 07:32:48;;;;;;;25.95;19.08;;;26.20;63.30;;;;;;6178493;28;82762;-68
2021/07/25 07:35:50;;;;;;;29.58;23.67;;;26.30;64.50;;;;;;6180177;28;83285;-68
2021/07/25 07:38:51;;;;;;;25.00;20.90;;;26.30;66.10;;;;;;6173245;28;83081;-68
2021/07/25 07:41:51;;;;;;;24.23;19.40;;;26.30;66.00;;;;;;6173857;28;83930;-68
2021/07/25 07:44:52;;;;;;;21.92;17.30;;;26.40;67.70;;;;;;6172402;28;83550;-66
2021/07/25 07:47:52;;;;;;;22.63;16.67;;;26.40;66.80;;;;;;6170032;28;83635;-67
2021/07/25 07:50:53;;;;;;;23.98;16.00;;;26.40;66.40;;;;;;6176526;28;84351;-68
2021/07/25 07:53:53;;;;;;;21.38;14.82;;;26.40;67.60;;;;;;6166283;28;83302;-67
2021/07/25 07:56:54;;;;;;;22.58;14.30;;;26.50;66.90;;;;;;6168943;28;84304;-67
2021/07/25 07:59:54;;;;;;;27.52;14.32;;;26.40;66.60;;;;;;6165969;28;84076;-69
2021/07/25 08:02:55;;;;;;;106.97;40.17;;;26.50;65.30;;;;;;6162268;28;83509;-67
2021/07/25 08:05:55;;;;;;;102.30;40.47;;;26.50;66.50;;;;;;6165180;28;84149;-68
2021/07/25 08:08:56;;;;;;;76.80;31.35;;;26.50;66.20;;;;;;6163852;28;83230;-68
2021/07/25 08:11:56;;;;;;;67.93;25.35;;;26.60;65.70;;;;;;6164784;28;83437;-68
2021/07/25 08:14:57;;;;;;;50.67;20.58;;;26.60;64.50;;;;;;6165896;28;83028;-67
2021/07/25 08:17:57;;;;;;;32.85;15.80;;;26.60;64.30;;;;;;6165555;28;83951;-68
2021/07/25 08:20:58;;;;;;;37.03;14.82;;;26.60;62.60;;;;;;6166000;28;83088;-67
2021/07/25 08:23:58;;;;;;;21.25;11.45;;;26.60;63.00;;;;;;6161521;28;83225;-68
2021/07/25 08:26:59;;;;;;;18.52;9.82;;;26.70;59.20;;;;;;6165782;28;85782;-69
2021/07/25 08:29:59;;;;;;;17.30;9.98;;;26.70;57.80;;;;;;6165444;28;82940;-68
2021/07/25 08:33:00;;;;;;;22.20;8.55;;;26.70;59.10;;;;;;6168156;28;83310;-69
2021/07/25 08:36:02;;;;;;;15.70;9.23;;;26.70;57.40;;;;;;6167680;28;84200;-66
2021/07/25 08:39:02;;;;;;;11.82;8.38;;;26.80;56.20;;;;;;6170278;28;80477;-65
2021/07/25 08:42:03;;;;;;;11.02;8.02;;;26.80;56.90;;;;;;6181656;28;80255;-67
2021/07/25 08:45:04;;;;;;;11.75;8.13;;;26.80;56.20;;;;;;6181024;28;80597;-67
2021/07/25 08:48:04;;;;;;;15.13;8.27;;;26.90;56.20;;;;;;6180640;28;80608;-67
2021/07/25 08:51:05;;;;;;;12.85;8.23;;;26.80;55.50;;;;;;6177971;28;81420;-67
2021/07/25 08:54:08;;;;;;;11.77;7.32;;;26.90;54.40;;;;;;6179125;28;80991;-68
2021/07/25 08:57:09;;;;;;;11.93;8.85;;;26.90;55.40;;;;;;6177457;28;81383;-68
2021/07/25 09:00:10;;;;;;;11.40;8.38;;;26.90;55.00;;;;;;6180463;28;80853;-68
2021/07/25 09:03:11;;;;;;;15.80;7.80;;;26.90;54.20;;;;;;6178383;28;80402;-67
2021/07/25 09:06:12;;;;;;;9.90;8.05;;;26.90;55.20;;;;;;6179492;28;80743;-67
2021/07/25 09:09:12;;;;;;;10.77;8.68;;;26.90;55.10;;;;;;6182557;28;81384;-68
2021/07/25 09:12:13;;;;;;;9.63;7.90;;;26.90;54.60;;;;;;6171122;28;80544;-68
2021/07/25 09:15:13;;;;;;;13.20;7.50;;;26.90;54.50;;;;;;6181488;28;80510;-68
2021/07/25 09:18:14;;;;;;;11.35;7.80;;;26.90;55.10;;;;;;6171068;28;81489;-70
2021/07/25 09:21:14;;;;;;;10.73;7.53;;;26.90;54.20;;;;;;6165345;28;81485;-69
2021/07/25 09:24:15;;;;;;;14.40;8.23;;;26.90;54.80;;;;;;6174373;28;83243;-68
2021/07/25 09:27:17;;;;;;;9.73;7.63;;;26.90;54.50;;;;;;6179930;28;80535;-69
2021/07/25 09:30:18;;;;;;;10.52;7.47;;;26.90;54.50;;;;;;6177622;28;80517;-69
2021/07/25 09:33:18;;;;;;;16.67;7.50;;;26.90;54.80;;;;;;6172292;28;80569;-69
2021/07/25 09:36:19;;;;;;;12.68;7.63;;;26.90;54.60;;;;;;6180503;28;81252;-68
2021/07/25 09:39:19;;;;;;;12.07;8.73;;;26.90;54.70;;;;;;6181790;28;80417;-69
2021/07/25 09:42:20;;;;;;;8.95;7.75;;;26.90;55.00;;;;;;6179312;28;81766;-68
2021/07/25 09:45:20;;;;;;;10.98;7.30;;;26.90;54.60;;;;;;6175288;28;80948;-67
2021/07/25 09:48:21;;;;;;;13.10;7.60;;;26.90;54.30;;;;;;6184512;28;80790;-68
2021/07/25 09:51:21;;;;;;;10.40;7.65;;;26.90;54.20;;;;;;6184845;28;80601;-65
2021/07/25 09:54:22;;;;;;;12.02;7.93;;;26.90;54.10;;;;;;6182298;28;83917;-68
2021/07/25 09:57:22;;;;;;;11.93;7.32;;;26.90;53.60;;;;;;6184897;28;80768;-69
2021/07/25 10:00:23;;;;;;;9.65;7.32;;;26.90;53.30;;;;;;6183593;28;81137;-69
2021/07/25 10:03:24;;;;;;;9.52;7.78;;;26.90;53.20;;;;;;6174887;28;80721;-69
2021/07/25 10:06:24;;;;;;;10.77;7.80;;;26.90;53.20;;;;;;6179062;28;80849;-69
2021/07/25 10:09:26;;;;;;;13.32;7.93;;;27.00;52.80;;;;;;6173421;28;80587;-69
2021/07/25 10:12:27;;;;;;;11.32;8.15;;;27.00;52.60;;;;;;6175885;28;81135;-69
2021/07/25 10:15:27;;;;;;;15.13;11.48;;;27.00;52.60;;;;;;6183641;28;80410;-68
2021/07/25 10:18:28;;;;;;;14.65;8.73;;;27.00;53.00;;;;;;6180510;28;83951;-68
2021/07/25 10:21:28;;;;;;;11.30;8.50;;;27.00;53.10;;;;;;6181817;28;83003;-68
2021/07/25 10:24:29;;;;;;;10.20;7.97;;;27.00;53.30;;;;;;6181501;28;80690;-67
2021/07/25 10:27:32;;;;;;;11.18;8.27;;;27.00;53.10;;;;;;6179926;28;80754;-68
2021/07/25 10:30:33;;;;;;;12.15;7.97;;;27.00;53.30;;;;;;6182289;28;80394;-68
2021/07/25 10:33:33;;;;;;;11.75;8.13;;;27.00;53.60;;;;;;6184991;28;80639;-68
2021/07/25 10:36:34;;;;;;;9.20;7.28;;;27.00;53.30;;;;;;6179997;28;80082;-67
2021/07/25 10:39:34;;;;;;;9.40;7.28;;;27.00;53.80;;;;;;6173463;28;80938;-67
2021/07/25 10:42:35;;;;;;;10.20;7.28;;;27.00;54.50;;;;;;6182743;28;87401;-66
2021/07/25 10:45:36;;;;;;;9.27;7.45;;;27.00;54.70;;;;;;6182337;28;80473;-66
2021/07/25 10:48:36;;;;;;;10.90;8.23;;;27.00;54.60;;;;;;6172914;28;80877;-64
2021/07/25 10:51:37;;;;;;;11.25;8.50;;;27.00;54.40;;;;;;6182376;28;81306;-68
2021/07/25 10:54:37;;;;;;;10.25;8.13;;;27.00;53.70;;;;;;6187663;28;80789;-66
2021/07/25 10:57:38;;;;;;;13.52;9.88;;;26.90;52.90;;;;;;6182118;28;83045;-68
2021/07/25 11:00:39;;;;;;;11.35;8.82;;;26.80;53.00;;;;;;6172809;28;80463;-66
2021/07/25 11:03:39;;;;;;;12.60;8.60;;;26.70;53.50;;;;;;6181513;28;80832;-65
2021/07/25 11:06:40;;;;;;;10.98;9.15;;;26.80;54.10;;;;;;6171171;28;81842;-66
2021/07/25 11:09:40;;;;;;;12.35;9.15;;;26.70;54.40;;;;;;6175825;28;80606;-66
2021/07/25 11:12:41;;;;;;;12.38;9.15;;;26.70;54.70;;;;;;6176047;28;80234;-66
2021/07/25 11:15:41;;;;;;;13.23;10.55;;;26.70;54.80;;;;;;6181219;28;81757;-66
2021/07/25 11:18:42;;;;;;;12.65;10.10;;;26.70;54.10;;;;;;6168395;28;85312;-65
2021/07/25 11:21:50;;;;;;;13.52;9.95;;;26.70;54.40;;;;;;6170412;28;83758;-65
2021/07/25 11:24:50;;;;;;;12.70;9.88;;;26.70;53.80;;;;;;6168294;28;82955;-66
2021/07/25 11:27:51;;;;;;;16.73;9.15;;;26.60;53.10;;;;;;6175140;28;80418;-66
2021/07/25 11:30:52;;;;;;;13.77;9.88;;;26.60;53.50;;;;;;6180982;28;80302;-65
2021/07/25 11:33:53;;;;;;;16.85;10.35;;;26.60;53.60;;;;;;6179373;28;81563;-63
2021/07/25 11:36:54;;;;;;;13.75;10.32;;;26.60;53.90;;;;;;6171827;28;83182;-63
2021/07/25 11:39:54;;;;;;;11.63;9.60;;;26.50;54.10;;;;;;6176788;28;83847;-65
2021/07/25 11:42:55;;;;;;;11.48;10.27;;;26.50;54.30;;;;;;6169028;28;81815;-65
2021/07/25 11:45:55;;;;;;;13.07;10.38;;;26.50;54.60;;;;;;6174411;28;83189;-65
2021/07/25 11:48:56;;;;;;;17.95;10.52;;;26.50;54.40;;;;;;6175656;28;83094;-65
2021/07/25 11:52:00;;;;;;;16.23;11.32;;;26.50;54.20;;;;;;6179476;28;83393;-65
2021/07/25 11:55:00;;;;;;;18.35;10.75;;;26.50;54.40;;;;;;6172030;28;83866;-65
2021/07/25 11:58:01;;;;;;;18.63;11.20;;;26.50;54.70;;;;;;6176684;28;83130;-66
2021/07/25 12:01:01;;;;;;;17.13;10.43;;;26.60;55.10;;;;;;6173487;28;83159;-66
2021/07/25 12:04:01;;;;;;;17.63;10.50;;;26.50;55.00;;;;;;6170382;28;84761;-65
2021/07/25 12:07:02;;;;;;;13.77;9.80;;;26.50;55.30;;;;;;6164208;28;83352;-67
2021/07/25 12:10:02;;;;;;;13.13;10.30;;;26.30;54.80;;;;;;6168107;28;82877;-67
2021/07/25 12:13:03;;;;;;;12.02;9.50;;;26.10;54.80;;;;;;6176605;28;83418;-66
2021/07/25 12:16:03;;;;;;;11.20;10.00;;;26.20;54.30;;;;;;6169738;28;83622;-66
2021/07/25 12:19:04;;;;;;;12.57;8.75;;;26.20;54.20;;;;;;6173196;28;83185;-67
2021/07/25 12:22:04;;;;;;;15.50;9.60;;;26.20;54.10;;;;;;6177943;28;83107;-66
2021/07/25 12:25:05;;;;;;;10.88;9.55;;;26.20;53.90;;;;;;6178499;28;80282;-65
2021/07/25 12:28:07;;;;;;;13.77;9.57;;;26.10;53.90;;;;;;6176617;28;80918;-67
2021/07/25 12:31:07;;;;;;;10.57;8.65;;;26.10;53.30;;;;;;6178833;28;81037;-66
2021/07/25 12:34:08;;;;;;;11.10;8.80;;;26.20;53.30;;;;;;6176614;28;80214;-67
2021/07/25 12:37:08;;;;;;;12.77;8.60;;;26.20;52.40;;;;;;6179048;28;80739;-66
2021/07/25 12:40:09;;;;;;;14.82;8.93;;;26.20;52.40;;;;;;6164008;28;80583;-66
2021/07/25 12:43:10;;;;;;;14.63;10.07;;;26.30;52.50;;;;;;6178939;28;80545;-65
2021/07/25 12:46:11;;;;;;;26.48;16.27;;;26.30;52.30;;;;;;6178464;28;83211;-66
2021/07/25 12:49:11;;;;;;;20.85;14.73;;;26.40;52.10;;;;;;6178619;28;83259;-67
2021/07/25 12:52:12;;;;;;;16.13;11.73;;;26.40;52.20;;;;;;6173029;28;83075;-66
2021/07/25 12:55:12;;;;;;;16.08;12.05;;;26.40;52.30;;;;;;6174887;28;83210;-66
2021/07/25 12:58:13;;;;;;;15.40;10.95;;;26.50;52.50;;;;;;6170100;28;83573;-65
2021/07/25 13:04:24;;;;;;;16.95;10.80;;;26.50;53.70;;;;;;6164831;28;83557;-66
2021/07/25 13:07:25;;;;;;;12.77;10.00;;;26.50;53.60;;;;;;6176171;28;83227;-65
2021/07/25 13:10:25;;;;;;;17.35;9.90;;;26.50;52.90;;;;;;6169019;28;83226;-67
2021/07/25 13:13:26;;;;;;;11.43;8.95;;;26.50;52.70;;;;;;6180103;28;83241;-67
2021/07/25 13:16:26;;;;;;;15.43;9.82;;;26.50;53.10;;;;;;6174140;28;80947;-65
2021/07/25 13:19:27;;;;;;;14.43;9.10;;;26.50;52.40;;;;;;6182966;28;81463;-65
2021/07/25 13:22:27;;;;;;;12.35;9.38;;;26.50;52.10;;;;;;6173816;28;83336;-65
2021/07/25 13:25:28;;;;;;;11.05;8.63;;;26.50;52.60;;;;;;6183594;28;80490;-65
2021/07/25 13:28:28;;;;;;;15.35;9.52;;;26.50;53.60;;;;;;6180670;28;81739;-66
2021/07/25 13:31:29;;;;;;;10.43;8.73;;;26.50;52.90;;;;;;6181962;28;80577;-65
2021/07/25 13:34:29;;;;;;;14.70;9.00;;;26.50;53.00;;;;;;6167594;28;81379;-66
2021/07/25 13:37:30;;;;;;;11.60;9.32;;;26.60;53.40;;;;;;6168685;28;83107;-66
2021/07/25 13:40:30;;;;;;;13.13;9.68;;;26.50;53.60;;;;;;6181255;28;81843;-66
2021/07/25 13:43:34;;;;;;;13.18;9.75;;;26.60;53.70;;;;;;6175479;28;80499;-66
2021/07/25 13:46:47;;;;;;;16.63;10.52;;;26.60;54.00;;;;;;6183209;28;80768;-68
2021/07/25 13:49:48;;;;;;;15.27;10.00;;;26.60;54.40;;;;;;6180359;28;83201;-67
2021/07/25 13:52:48;;;;;;;12.23;9.43;;;26.60;54.50;;;;;;6180347;28;83466;-67
2021/07/25 13:55:49;;;;;;;11.40;9.80;;;26.60;54.70;;;;;;6184316;28;82960;-66
2021/07/25 13:58:49;;;;;;;13.07;9.95;;;26.60;55.00;;;;;;6181072;28;80917;-67
2021/07/25 14:01:50;;;;;;;12.40;9.65;;;26.60;55.40;;;;;;6176421;28;80291;-66
2021/07/25 14:04:53;;;;;;;16.88;9.70;;;26.60;55.50;;;;;;6183827;28;80472;-67
2021/07/25 14:07:53;;;;;;;12.32;9.25;;;26.70;55.50;;;;;;6183773;28;80447;-67
2021/07/25 14:10:54;;;;;;;12.80;9.43;;;26.70;55.50;;;;;;6173254;28;80803;-66
2021/07/25 14:13:54;;;;;;;15.70;9.95;;;26.70;55.50;;;;;;6183027;28;80563;-66
2021/07/25 14:16:58;;;;;;;16.25;10.10;;;26.70;56.00;;;;;;6185024;28;80321;-67
2021/07/25 14:19:58;;;;;;;14.18;10.55;;;26.70;56.20;;;;;;6174558;28;83076;-67
2021/07/25 14:22:59;;;;;;;13.38;10.02;;;26.60;56.40;;;;;;6178830;28;83706;-66
2021/07/25 14:25:59;;;;;;;15.02;10.20;;;26.60;56.60;;;;;;6170159;28;83402;-67
2021/07/25 14:28:59;;;;;;;13.98;10.15;;;26.60;56.60;;;;;;6179322;28;84147;-66
2021/07/25 14:32:00;;;;;;;13.05;10.00;;;26.60;56.70;;;;;;6176321;28;83031;-66
2021/07/25 14:35:01;;;;;;;14.55;10.07;;;26.60;56.60;;;;;;6174710;28;84374;-66
2021/07/25 14:38:01;;;;;;;13.23;9.88;;;26.60;55.80;;;;;;6173279;28;83217;-65
2021/07/25 14:41:02;;;;;;;11.88;9.93;;;26.70;55.50;;;;;;6183119;28;84582;-66
2021/07/25 14:44:02;;;;;;;13.15;10.23;;;26.70;55.30;;;;;;6184651;28;80422;-66
2021/07/25 14:47:03;;;;;;;13.82;9.00;;;26.70;55.60;;;;;;6180273;28;82894;-66
2021/07/25 14:50:03;;;;;;;16.30;10.13;;;26.70;55.80;;;;;;6183089;28;81636;-65
2021/07/25 14:53:04;;;;;;;14.63;10.70;;;26.70;55.50;;;;;;6172580;28;83261;-65
2021/07/25 14:56:05;;;;;;;13.65;9.40;;;26.70;55.70;;;;;;6179973;28;83512;-66
2021/07/25 14:59:05;;;;;;;13.15;9.07;;;26.70;55.30;;;;;;6175783;28;89331;-67
2021/07/25 15:02:06;;;;;;;14.75;9.63;;;26.70;55.10;;;;;;6182137;28;83149;-67
2021/07/25 15:05:06;;;;;;;18.92;9.38;;;26.70;54.50;;;;;;6179874;28;80382;-67
2021/07/25 15:08:07;;;;;;;16.25;9.55;;;26.70;54.30;;;;;;6169665;28;80581;-67
2021/07/25 15:11:07;;;;;;;16.25;8.77;;;26.70;54.10;;;;;;6171893;28;80820;-66
2021/07/25 15:14:08;;;;;;;10.38;8.18;;;26.60;54.00;;;;;;6178982;28;81024;-67
2021/07/25 15:17:08;;;;;;;12.02;8.70;;;26.70;54.20;;;;;;6175101;28;81533;-65
2021/07/25 15:20:09;;;;;;;11.25;8.57;;;26.70;54.30;;;;;;6180121;28;81076;-65
2021/07/25 15:23:09;;;;;;;14.60;9.25;;;26.70;54.30;;;;;;6183906;28;80693;-65